Latest Weather Observations for Bradshaw

IDD60801

Issued at 5:31 pm CST Wednesday 26 April 2017 (issued every 30 minutes, with the page automatically refreshed every 10 minutes)

About weather observations | Map of weather stations | Latest weather observations for NT | Other Formats
Station Details ID: 014954 Name: BRADSHAW Lat: -14.94 Lon: 130.81 Height: 75.0 m
Data from the previous 72 hours. | See also: Recent months at Bradshaw
Date/Time
CST
Temp
°C
App
Temp
°C
Dew
Point
°C
Rel
Hum
%
Delta-T
°C
Wind Press
QNH
hPa
Press
MSL
hPa
Rain since
9am
mm
Dir  Spd
km/h
Gust
km/h
Spd
kts
Gust
kts
26/05:30pm 34.2 32.3 15.1 31 11.9 E 19 26 10 14 1009.5 - 0.0
26/05:00pm 34.8 31.0 13.6 28 13.0 E 26 35 14 19 1009.2 - 0.0
26/04:30pm 35.5 33.4 15.3 30 12.7 ESE 20 37 11 20 1009.0 - 0.0
26/04:00pm 35.8 32.3 14.4 27 13.3 ESE 26 39 14 21 1008.9 - 0.0
26/03:30pm 36.3 31.2 13.1 25 14.2 E 32 44 17 24 1009.0 - 0.0
26/03:00pm 36.4 32.1 13.2 25 14.2 ESE 28 41 15 22 1009.2 1008.7 0.0
26/02:30pm 36.0 33.9 16.2 31 12.6 ESE 22 32 12 17 1009.5 - 0.0
26/02:00pm 36.1 34.0 16.3 31 12.6 ESE 22 33 12 18 1010.1 - 0.0
26/01:30pm 34.7 33.5 17.0 35 11.4 ESE 19 30 10 16 1010.5 - 0.0
26/01:00pm 34.6 34.6 18.2 37 10.7 SE 15 26 8 14 1010.8 - 0.0
26/12:30pm 33.7 33.3 19.0 42 9.7 E 19 26 10 14 1011.8 - 0.0
26/12:00pm 33.6 33.9 19.7 44 9.2 E 17 24 9 13 1012.4 1011.9 0.0
26/11:30am 33.3 33.8 20.1 45 8.8 ESE 17 26 9 14 1012.9 - 0.0
26/11:00am 32.3 33.8 20.5 49 7.9 E 13 20 7 11 1013.3 - 0.0
26/10:30am 30.9 32.2 20.2 53 7.1 E 13 19 7 10 1013.3 - 0.0
26/10:00am 29.8 32.4 20.4 57 6.2 ESE 7 13 4 7 1013.3 - 0.0
26/09:30am 28.7 31.2 20.2 60 5.6 ESE 7 11 4 6 1013.2 - 0.0
26/09:00am 27.4 29.8 19.7 63 5.0 SW 6 7 3 4 1012.9 1012.4 0.0
26/08:30am 27.0 30.1 19.6 64 4.8 E 2 7 1 4 1012.8 - 0.0
26/08:00am 26.0 29.9 20.3 71 3.7 CALM 0 0 0 0 1012.6 - 0.0
26/07:30am 23.2 25.6 20.0 82 2.1 N 7 9 4 5 1012.1 - 0.0
26/07:00am 21.9 24.2 19.5 86 1.5 SE 6 7 3 4 1011.7 - 0.0
26/06:30am 21.9 25.3 19.3 85 1.7 CALM 0 0 0 0 1011.5 - 0.0
26/06:00am 22.2 25.6 19.4 84 1.8 CALM 0 0 0 0 1011.2 1010.7 0.0
26/05:30am 22.2 25.5 19.0 82 2.0 CALM 0 0 0 0 1011.1 - 0.0
26/05:00am 22.7 26.0 19.1 80 2.3 CALM 0 0 0 0 1011.0 - 0.0
26/04:30am 23.1 26.4 19.1 78 2.5 CALM 0 0 0 0 1011.0 - 0.0
26/04:00am 23.6 26.9 19.1 76 2.9 CALM 0 0 0 0 1011.1 - 0.0
26/03:30am 24.4 27.6 18.8 71 3.6 CALM 0 0 0 0 1011.2 - 0.0
26/03:00am 25.0 27.7 18.7 68 4.0 WNW 2 6 1 3 1011.3 1010.8 0.0
26/02:30am 25.4 27.4 18.8 67 4.2 W 6 7 3 4 1011.5 - 0.0
26/02:00am 25.4 27.3 18.6 66 4.3 W 6 7 3 4 1011.8 - 0.0
26/01:30am 25.5 27.4 18.9 67 4.2 WNW 7 11 4 6 1012.1 - 0.0
26/01:00am 26.0 27.8 18.4 63 4.8 SW 6 11 3 6 1012.3 - 0.0
26/12:30am 27.4 28.5 18.1 57 5.9 ENE 9 11 5 6 1012.2 - 0.0
26/12:00am 27.6 28.3 18.0 55 6.1 ENE 11 13 6 7 1012.3 1011.8 0.0
 
Date/Time
CST
Temp
°C
App
Temp
°C
Dew
Point
°C
Rel
Hum
%
Delta-T
°C
Wind Press
QNH
hPa
Press
MSL
hPa
Rain since
9am
mm
Dir  Spd
km/h
Gust
km/h
Spd
kts
Gust
kts
25/11:30pm 28.1 28.8 17.9 54 6.5 E 11 13 6 7 1012.3 - 0.0
25/11:00pm 28.4 29.0 17.6 52 6.8 ENE 11 11 6 6 1012.4 - 0.0
25/10:30pm 29.1 29.5 17.3 49 7.5 ENE 11 13 6 7 1012.5 - 0.0
25/10:00pm 29.2 29.7 17.4 49 7.5 ENE 11 13 6 7 1012.5 - 0.0
25/09:30pm 29.5 30.3 17.3 47 7.7 ENE 9 11 5 6 1012.5 - 0.0
25/09:00pm 29.3 30.3 17.8 50 7.3 ENE 9 13 5 7 1012.3 1011.8 0.0
25/08:30pm 30.1 31.0 17.5 46 8.0 ENE 9 13 5 7 1011.9 - 0.0
25/08:00pm 30.3 31.5 17.4 46 8.2 E 7 11 4 6 1011.5 - 0.0
25/07:30pm 30.4 31.1 17.1 44 8.4 ENE 9 11 5 6 1011.0 - 0.0
25/07:00pm 30.9 31.8 16.5 42 9.1 E 7 9 4 5 1010.7 - 0.0
25/06:30pm 32.7 32.7 15.2 34 10.9 E 9 11 5 6 1010.4 - 0.0
25/06:00pm 34.2 33.0 14.1 29 12.4 E 13 17 7 9 1010.0 1009.5 0.0
25/05:30pm 35.4 33.5 13.0 26 13.6 E 15 20 8 11 1009.6 - 0.0
25/05:00pm 35.8 33.2 12.1 24 14.2 E 17 24 9 13 1009.2 - 0.0
25/04:30pm 36.3 34.4 13.1 25 14.2 E 15 26 8 14 1009.1 - 0.0
25/04:00pm 36.6 35.6 13.4 25 14.2 E 11 20 6 11 1008.9 - 0.0
25/03:30pm 36.8 34.9 12.9 24 14.6 E 15 24 8 13 1009.1 - 0.0
25/03:00pm 36.6 33.6 12.7 23 14.5 ESE 20 30 11 16 1009.5 1009.0 0.0
25/02:30pm 36.8 34.3 13.5 24 14.3 ESE 19 28 10 15 1009.7 - 0.0
25/02:00pm 36.4 35.3 14.4 27 13.7 SE 13 22 7 12 1010.2 - 0.0
25/01:30pm 36.0 34.5 14.1 27 13.5 S 15 28 8 15 1010.7 - 0.0
25/01:00pm 35.3 35.8 15.6 31 12.4 SSE 7 19 4 10 1011.2 - 0.0
25/12:30pm 35.3 36.0 16.1 32 12.2 SW 7 17 4 9 1011.8 - 0.0
25/12:00pm 34.5 34.6 16.4 34 11.5 S 11 17 6 9 1012.2 1011.7 0.0
25/11:30am 34.3 35.4 16.6 34 11.3 ESE 6 17 3 9 1012.9 - 0.0
25/11:00am 33.2 34.3 17.0 38 10.3 SSW 7 15 4 8 1013.4 - 0.0
25/10:30am 32.3 33.6 17.0 40 9.7 N 6 11 3 6 1013.6 - 0.0
25/10:00am 30.7 31.2 17.4 45 8.5 NNE 11 15 6 8 1013.8 - 0.0
25/09:30am 30.3 32.0 18.4 49 7.7 ENE 7 13 4 7 1013.7 - 0.0
25/09:00am 28.9 31.0 18.1 52 6.9 ESE 4 7 2 4 1013.6 1013.1 0.0
25/08:30am 27.6 29.9 18.6 58 5.8 N 4 7 2 4 1013.3 - 0.0
25/08:00am 26.2 28.6 19.6 67 4.3 N 6 7 3 4 1012.9 - 0.0
25/07:30am 24.2 27.6 19.3 74 3.1 CALM 0 0 0 0 1012.4 - 0.0
25/07:00am 23.4 26.0 18.5 74 3.1 N 2 7 1 4 1012.3 - 0.0
25/06:30am 24.2 25.4 18.2 69 3.8 N 9 13 5 7 1011.6 - 0.0
25/06:00am 25.1 26.8 18.1 65 4.4 NNE 6 11 3 6 1011.2 1010.7 0.0
25/05:30am 25.5 25.5 18.2 64 4.6 NE 15 19 8 10 1010.8 - 0.0
25/05:00am 25.1 26.0 18.3 66 4.3 NNE 11 17 6 9 1011.0 - 0.0
25/04:30am 25.1 28.3 18.8 68 4.0 CALM 0 0 0 0 1011.1 - 0.0
25/04:00am 26.0 27.6 17.9 61 5.1 E 6 7 3 4 1011.2 - 0.0
25/03:30am 26.5 27.3 18.1 60 5.3 NNE 11 17 6 9 1011.1 - 0.0
25/03:00am 27.0 27.6 17.8 57 5.8 NNE 11 15 6 8 1011.2 1010.7 0.0
25/02:30am 26.8 27.7 17.6 57 5.8 NE 9 13 5 7 1011.3 - 0.0
25/02:00am 27.3 27.4 17.5 55 6.2 ENE 13 15 7 8 1011.7 - 0.0
25/01:30am 27.6 27.9 18.0 55 6.1 NE 13 15 7 8 1012.0 - 0.0
25/01:00am 26.8 28.1 17.6 57 5.8 E 7 11 4 6 1012.6 - 0.0
25/12:30am 27.6 28.6 17.7 54 6.3 E 9 13 5 7 1012.8 - 0.0
25/12:00am 27.7 28.6 17.5 53 6.4 ENE 9 11 5 6 1013.0 1012.5 0.0
 
Date/Time
CST
Temp
°C
App
Temp
°C
Dew
Point
°C
Rel
Hum
%
Delta-T
°C
Wind Press
QNH
hPa
Press
MSL
hPa
Rain since
9am
mm
Dir  Spd
km/h
Gust
km/h
Spd
kts
Gust
kts
24/11:30pm 28.4 29.0 17.6 52 6.8 NE 11 15 6 8 1013.0 - 0.0
24/11:00pm 27.7 28.6 17.5 53 6.4 NE 9 9 5 5 1013.1 - 0.0
24/10:30pm 27.1 28.2 18.1 58 5.7 NE 9 11 5 6 1013.2 - 0.0
24/10:00pm 26.8 27.9 18.1 59 5.5 NE 9 9 5 5 1013.1 - 0.0
24/09:30pm 27.4 29.1 18.4 58 5.8 ENE 7 9 4 5 1013.1 - 0.0
24/09:00pm 27.5 28.6 17.9 55 6.1 ENE 9 11 5 6 1012.9 1012.4 0.0
24/08:30pm 28.3 29.3 17.8 53 6.7 ENE 9 11 5 6 1012.5 - 0.0
24/08:00pm 29.4 30.2 17.2 47 7.7 E 9 11 5 6 1012.2 - 0.0
24/07:30pm 30.4 31.0 16.8 44 8.6 E 9 11 5 6 1011.7 - 0.0
24/07:00pm 31.4 31.8 15.4 38 9.9 E 7 7 4 4 1011.2 - 0.0
24/06:30pm 32.9 32.6 14.5 33 11.3 E 9 13 5 7 1010.7 - 0.0
24/06:00pm 34.3 33.0 13.7 29 12.6 E 13 20 7 11 1010.3 1009.8 0.0
24/05:30pm 35.1 32.7 13.8 27 13.1 E 19 24 10 13 1010.1 - 0.0
24/05:00pm 35.6 32.8 13.1 25 13.7 E 20 28 11 15 1009.8 - 0.0
24/04:30pm 35.7 32.5 13.2 26 13.7 E 22 30 12 16 1009.8 - 0.0
24/04:00pm 35.9 34.0 15.1 29 13.0 ESE 19 26 10 14 1009.8 - 0.0
24/03:30pm 35.7 34.6 15.4 29 12.8 ESE 15 22 8 12 1010.0 - 0.0
24/03:00pm 35.5 34.2 14.7 28 13.0 E 15 24 8 13 1010.3 1009.8 0.0
24/02:30pm 35.8 34.2 16.0 30 12.6 ESE 19 26 10 14 1010.5 - 0.0
24/02:00pm 35.9 34.5 15.6 30 12.8 ESE 17 26 9 14 1010.9 - 0.0
24/01:30pm 35.3 33.7 15.1 30 12.6 ESE 17 30 9 16 1011.2 - 0.0
24/01:00pm 35.0 34.6 16.3 32 11.9 E 13 20 7 11 1011.8 - 0.0
24/12:30pm 34.5 33.6 15.9 33 11.7 SE 15 26 8 14 1012.6 - 0.0
24/12:00pm 34.2 33.2 15.6 32 11.7 ESE 15 24 8 13 1013.2 1012.7 0.0
24/11:30am 34.0 33.3 16.4 35 11.2 E 15 20 8 11 1013.7 - 0.0
24/11:00am 33.3 32.7 16.6 36 10.6 E 15 20 8 11 1014.0 - 0.0
24/10:30am 32.6 32.0 17.6 40 9.6 E 17 26 9 14 1014.2 - 0.0
24/10:00am 32.1 31.5 17.6 42 9.3 ENE 17 28 9 15 1014.3 - 0.0
24/09:30am 30.7 31.4 19.7 52 7.2 ENE 15 20 8 11 1014.3 - 0.0
24/09:00am 29.7 31.9 20.5 57 6.1 E 9 15 5 8 1014.3 1013.8 0.0
24/08:30am 28.3 30.2 19.8 60 5.6 ENE 9 13 5 7 1014.1 - 0.0
24/08:00am 27.0 28.7 19.4 63 4.9 NNE 9 13 5 7 1013.8 - 0.0
24/07:30am 25.3 27.6 19.4 70 3.8 N 6 9 3 5 1013.2 - 0.0
24/07:00am 24.2 25.8 19.1 73 3.3 N 9 11 5 6 1012.6 - 0.0
24/06:30am 25.2 26.8 19.1 69 3.9 NNW 9 11 5 6 1012.2 - 0.0
24/06:00am 25.3 26.5 19.0 68 4.0 NE 11 15 6 8 1011.8 1011.3 0.0
24/05:30am 25.6 26.4 19.0 67 4.2 NNE 13 15 7 8 1011.5 - 0.0
24/05:00am 25.8 26.6 19.0 66 4.4 NNE 13 15 7 8 1011.5 - 0.0
24/04:30am 26.0 26.5 19.2 66 4.4 NNE 15 17 8 9 1011.5 - 0.0
24/04:00am 26.1 27.4 19.2 65 4.4 NNE 11 13 6 7 1011.6 - 0.0
24/03:30am 26.2 26.7 19.3 65 4.5 NNE 15 19 8 10 1011.5 - 0.0
24/03:00am 27.1 28.4 19.4 62 5.0 ENE 11 15 6 8 1011.6 1011.1 0.0
24/02:30am 26.6 29.0 20.0 67 4.3 E 7 11 4 6 1011.9 - 0.0
24/02:00am 27.1 29.5 19.7 64 4.8 E 6 9 3 5 1012.2 - 0.0
24/01:30am 27.3 29.3 19.9 64 4.8 E 9 11 5 6 1012.5 - 0.0
24/01:00am 27.3 29.5 20.4 66 4.5 NE 9 11 5 6 1012.7 - 0.0
24/12:30am 27.0 29.5 20.3 66 4.4 NE 7 9 4 5 1013.0 - 0.0
24/12:00am 27.3 29.9 20.4 66 4.5 ENE 7 9 4 5 1013.1 1012.6 0.0
 
Date/Time
CST
Temp
°C
App
Temp
°C
Dew
Point
°C
Rel
Hum
%
Delta-T
°C
Wind Press
QNH
hPa
Press
MSL
hPa
Rain since
9am
mm
Dir  Spd
km/h
Gust
km/h
Spd
kts
Gust
kts
23/11:30pm 27.3 30.1 20.9 68 4.2 ENE 7 7 4 4 1013.1 - 0.0
23/11:00pm 27.7 30.5 20.8 66 4.6 NE 7 9 4 5 1013.4 - 0.0
23/10:30pm 27.6 30.3 20.7 66 4.6 NNE 7 9 4 5 1013.4 - 0.0
23/10:00pm 27.5 30.4 21.1 68 4.3 NNE 7 7 4 4 1013.4 - 0.0
23/09:30pm 28.0 31.2 21.3 67 4.5 NE 6 6 3 3 1013.2 - 0.0
23/09:00pm 28.5 31.5 20.8 63 5.1 E 6 7 3 4 1013.1 1012.6 0.0
23/08:30pm 29.2 32.2 20.9 61 5.5 E 6 7 3 4 1012.6 - 0.0
23/08:00pm 30.1 32.7 20.1 55 6.6 E 6 7 3 4 1012.2 - 0.0
23/07:30pm 30.8 32.8 19.2 50 7.6 ENE 7 9 4 5 1011.9 - 0.0
23/07:00pm 31.6 33.5 18.6 46 8.4 E 6 7 3 4 1011.6 - 0.0
23/06:30pm 33.3 33.6 17.0 37 10.4 E 11 15 6 8 1011.2 - 0.0
23/06:00pm 34.7 33.5 16.1 33 11.8 E 17 20 9 11 1010.8 1010.3 0.0

Other Formats:

Comma delimited format used in spreadsheet applications
http://www.bom.gov.au/fwo/IDD60801/IDD60801.94130.axf

JavaScript Object Notation format (JSON) in row-major order
http://www.bom.gov.au/fwo/IDD60801/IDD60801.94130.json